CTV342 WADD-WAAA
Flight info
| Callsign | CTV342 |
|---|---|
| Flight time | 1h 1m |
| Altitude | 35000 |
| Route | PEDET W41 LIPOT |
| Aircraft | A320/M-SDE3FGHIRWY/LB1 |
Departure
| Time | 2026-04-22 12:42 |
|---|---|
| Airport | Denpasar I Gusti Ngurah Rai International Airport (WADD) |
Arrival
| Time | 2026-04-22 13:43 |
|---|---|
| Airport | Sultan Hasanuddin International Airport (WAAA) |
| Time | Latitude | Longitude | Altitude | Speed | Heading |
|---|---|---|---|---|---|
| 2026-04-22 12:08 | -8.74564 | 115.16343 | 22 ft | 0 kts | 358° |
| 2026-04-22 12:32 | -8.74569 | 115.16343 | 22 ft | 2 kts | 358° |
| 2026-04-22 12:32 | -8.74585 | 115.16344 | 22 ft | 2 kts | 358° |
| 2026-04-22 12:33 | -8.74599 | 115.16344 | 22 ft | 2 kts | 358° |
| 2026-04-22 12:33 | -8.74615 | 115.16344 | 22 ft | 2 kts | 358° |
| 2026-04-22 12:33 | -8.74630 | 115.16344 | 22 ft | 2 kts | 358° |
| 2026-04-22 12:33 | -8.74645 | 115.16345 | 22 ft | 2 kts | 358° |
| 2026-04-22 12:34 | -8.74660 | 115.16345 | 21 ft | 2 kts | 358° |
| 2026-04-22 12:34 | -8.74675 | 115.16346 | 21 ft | 2 kts | 358° |
| 2026-04-22 12:34 | -8.74685 | 115.16346 | 21 ft | 1 kts | 357° |
| 2026-04-22 12:34 | -8.74694 | 115.16352 | 21 ft | 1 kts | 291° |
| 2026-04-22 12:35 | -8.74696 | 115.16360 | 21 ft | 1 kts | 258° |
| 2026-04-22 12:35 | -8.74695 | 115.16365 | 21 ft | 0 kts | 267° |
| 2026-04-22 12:37 | -8.74695 | 115.16358 | 21 ft | 2 kts | 268° |
| 2026-04-22 12:37 | -8.74696 | 115.16332 | 21 ft | 4 kts | 269° |
| 2026-04-22 12:37 | -8.74697 | 115.16283 | 20 ft | 9 kts | 268° |
| 2026-04-22 12:37 | -8.74700 | 115.16206 | 18 ft | 12 kts | 267° |
| 2026-04-22 12:38 | -8.74703 | 115.16107 | 17 ft | 15 kts | 268° |
| 2026-04-22 12:38 | -8.74709 | 115.15988 | 16 ft | 18 kts | 267° |
| 2026-04-22 12:38 | -8.74714 | 115.15852 | 14 ft | 20 kts | 268° |
| 2026-04-22 12:38 | -8.74719 | 115.15704 | 12 ft | 21 kts | 268° |
| 2026-04-22 12:39 | -8.74724 | 115.15591 | 12 ft | 10 kts | 267° |
| 2026-04-22 12:39 | -8.74741 | 115.15427 | 12 ft | 12 kts | 239° |
| 2026-04-22 12:39 | -8.74785 | 115.15400 | 12 ft | 0 kts | 183° |
| 2026-04-22 12:40 | -8.74788 | 115.15400 | 12 ft | 1 kts | 183° |
| 2026-04-22 12:40 | -8.74811 | 115.15399 | 12 ft | 4 kts | 181° |
| 2026-04-22 12:40 | -8.74856 | 115.15402 | 12 ft | 7 kts | 165° |
| 2026-04-22 12:41 | -8.74894 | 115.15444 | 12 ft | 8 kts | 102° |
| 2026-04-22 12:41 | -8.74895 | 115.15475 | 13 ft | 1 kts | 88° |
| 2026-04-22 12:41 | -8.74891 | 115.15575 | 14 ft | 44 kts | 88° |
| 2026-04-22 12:41 | -8.74869 | 115.16119 | 17 ft | 109 kts | 87° |
| 2026-04-22 12:42 | -8.74835 | 115.17085 | 21 ft | 162 kts | 87° |
| 2026-04-22 12:42 | -8.74808 | 115.18175 | 715 ft | 148 kts | 87° |
| 2026-04-22 12:42 | -8.74771 | 115.19231 | 1173 ft | 156 kts | 86° |
| 2026-04-22 12:42 | -8.74720 | 115.20358 | 1685 ft | 162 kts | 86° |
| 2026-04-22 12:43 | -8.74667 | 115.21519 | 2044 ft | 172 kts | 86° |
| 2026-04-22 12:43 | -8.74612 | 115.22782 | 2335 ft | 186 kts | 86° |
| 2026-04-22 12:43 | -8.74554 | 115.24134 | 2652 ft | 201 kts | 86° |
| 2026-04-22 12:43 | -8.74491 | 115.25646 | 2946 ft | 221 kts | 86° |
| 2026-04-22 12:44 | -8.74424 | 115.27240 | 3294 ft | 238 kts | 86° |
| 2026-04-22 12:44 | -8.74353 | 115.28975 | 3657 ft | 255 kts | 86° |
| 2026-04-22 12:44 | -8.74279 | 115.30821 | 4181 ft | 266 kts | 86° |
| 2026-04-22 12:44 | -8.74204 | 115.32699 | 4919 ft | 267 kts | 86° |
| 2026-04-22 12:45 | -8.74127 | 115.34583 | 5616 ft | 270 kts | 86° |
| 2026-04-22 12:45 | -8.74049 | 115.36486 | 6313 ft | 273 kts | 86° |
| 2026-04-22 12:45 | -8.73970 | 115.38417 | 7007 ft | 276 kts | 86° |
| 2026-04-22 12:45 | -8.73890 | 115.40367 | 7690 ft | 279 kts | 86° |
| 2026-04-22 12:46 | -8.73809 | 115.42341 | 8379 ft | 282 kts | 86° |
| 2026-04-22 12:46 | -8.73728 | 115.44328 | 9053 ft | 285 kts | 86° |
| 2026-04-22 12:46 | -8.73646 | 115.46326 | 9697 ft | 288 kts | 86° |
| 2026-04-22 12:46 | -8.73562 | 115.48345 | 10344 ft | 290 kts | 85° |
| 2026-04-22 12:47 | -8.73243 | 115.50379 | 10686 ft | 302 kts | 69° |
| 2026-04-22 12:47 | -8.72186 | 115.52251 | 11033 ft | 312 kts | 49° |
| 2026-04-22 12:47 | -8.70629 | 115.53848 | 11635 ft | 314 kts | 45° |
| 2026-04-22 12:47 | -8.69061 | 115.55399 | 12251 ft | 316 kts | 45° |
| 2026-04-22 12:48 | -8.67498 | 115.56950 | 12838 ft | 318 kts | 45° |
| 2026-04-22 12:48 | -8.65925 | 115.58520 | 13429 ft | 319 kts | 45° |
| 2026-04-22 12:48 | -8.64347 | 115.60100 | 13975 ft | 321 kts | 45° |
| 2026-04-22 12:48 | -8.62739 | 115.61710 | 14475 ft | 324 kts | 45° |
| 2026-04-22 12:49 | -8.61121 | 115.63333 | 14977 ft | 327 kts | 45° |
| 2026-04-22 12:49 | -8.59509 | 115.64947 | 15446 ft | 330 kts | 44° |
| 2026-04-22 12:49 | -8.57798 | 115.66561 | 15921 ft | 332 kts | 42° |
| 2026-04-22 12:49 | -8.56081 | 115.68124 | 16370 ft | 335 kts | 41° |
| 2026-04-22 12:50 | -8.54325 | 115.69719 | 16817 ft | 338 kts | 42° |
| 2026-04-22 12:50 | -8.52556 | 115.71330 | 17257 ft | 341 kts | 42° |
| 2026-04-22 12:50 | -8.50779 | 115.72953 | 17685 ft | 343 kts | 42° |
| 2026-04-22 12:50 | -8.49020 | 115.74564 | 18099 ft | 345 kts | 42° |
| 2026-04-22 12:51 | -8.47208 | 115.76226 | 18502 ft | 348 kts | 42° |
| 2026-04-22 12:51 | -8.45425 | 115.77862 | 18885 ft | 351 kts | 42° |
| 2026-04-22 12:51 | -8.43584 | 115.79551 | 19271 ft | 353 kts | 42° |
| 2026-04-22 12:51 | -8.41757 | 115.81227 | 19631 ft | 356 kts | 42° |
| 2026-04-22 12:52 | -8.39916 | 115.82916 | 19995 ft | 359 kts | 42° |
| 2026-04-22 12:52 | -8.38038 | 115.84639 | 20349 ft | 362 kts | 42° |
| 2026-04-22 12:52 | -8.36164 | 115.86358 | 20695 ft | 364 kts | 42° |
| 2026-04-22 12:52 | -8.34288 | 115.88080 | 21037 ft | 367 kts | 42° |
| 2026-04-22 12:53 | -8.32394 | 115.89818 | 21378 ft | 369 kts | 42° |
| 2026-04-22 12:53 | -8.30470 | 115.91582 | 21723 ft | 371 kts | 42° |
| 2026-04-22 12:53 | -8.28565 | 115.93330 | 22050 ft | 373 kts | 42° |
| 2026-04-22 12:53 | -8.26616 | 115.95118 | 22367 ft | 375 kts | 42° |
| 2026-04-22 12:54 | -8.24664 | 115.96909 | 22693 ft | 377 kts | 42° |
| 2026-04-22 12:54 | -8.22722 | 115.98689 | 23024 ft | 379 kts | 42° |
| 2026-04-22 12:54 | -8.20745 | 116.00502 | 23359 ft | 381 kts | 42° |
| 2026-04-22 12:54 | -8.18754 | 116.02326 | 23666 ft | 383 kts | 43° |
| 2026-04-22 12:55 | -8.16764 | 116.04151 | 23971 ft | 385 kts | 43° |
| 2026-04-22 12:55 | -8.14754 | 116.05992 | 24298 ft | 386 kts | 43° |
| 2026-04-22 12:55 | -8.12757 | 116.07822 | 24598 ft | 388 kts | 43° |
| 2026-04-22 12:55 | -8.10741 | 116.09669 | 24888 ft | 391 kts | 43° |
| 2026-04-22 12:56 | -8.08710 | 116.11530 | 25184 ft | 392 kts | 43° |
| 2026-04-22 12:56 | -8.06660 | 116.13408 | 25477 ft | 394 kts | 43° |
| 2026-04-22 12:56 | -8.04644 | 116.15254 | 25765 ft | 396 kts | 43° |
| 2026-04-22 12:56 | -8.02603 | 116.17123 | 26046 ft | 397 kts | 43° |
| 2026-04-22 12:57 | -8.00535 | 116.19018 | 26320 ft | 399 kts | 43° |
| 2026-04-22 12:57 | -7.98465 | 116.20912 | 26591 ft | 401 kts | 43° |
| 2026-04-22 12:57 | -7.96385 | 116.22816 | 26861 ft | 402 kts | 43° |
| 2026-04-22 12:57 | -7.94299 | 116.24725 | 27127 ft | 404 kts | 43° |
| 2026-04-22 12:58 | -7.92213 | 116.26633 | 27384 ft | 405 kts | 43° |
| 2026-04-22 12:58 | -7.90113 | 116.28554 | 27623 ft | 407 kts | 43° |
| 2026-04-22 12:58 | -7.88002 | 116.30485 | 27870 ft | 409 kts | 43° |
| 2026-04-22 12:58 | -7.85880 | 116.32426 | 28116 ft | 411 kts | 43° |
| 2026-04-22 12:59 | -7.83757 | 116.34369 | 28373 ft | 412 kts | 43° |
| 2026-04-22 12:59 | -7.81627 | 116.36317 | 28613 ft | 413 kts | 43° |
| 2026-04-22 12:59 | -7.79481 | 116.38279 | 28854 ft | 415 kts | 43° |
| 2026-04-22 12:59 | -7.77331 | 116.40244 | 29078 ft | 417 kts | 43° |
| 2026-04-22 13:00 | -7.75159 | 116.42230 | 29313 ft | 419 kts | 43° |
| 2026-04-22 13:00 | -7.73003 | 116.44200 | 29544 ft | 420 kts | 43° |
| 2026-04-22 13:00 | -7.70817 | 116.46197 | 29771 ft | 422 kts | 43° |
| 2026-04-22 13:00 | -7.68649 | 116.48178 | 29995 ft | 423 kts | 43° |
| 2026-04-22 13:01 | -7.66447 | 116.50190 | 30208 ft | 425 kts | 43° |
| 2026-04-22 13:01 | -7.64255 | 116.52191 | 30414 ft | 427 kts | 43° |
| 2026-04-22 13:01 | -7.62041 | 116.54214 | 30623 ft | 428 kts | 43° |
| 2026-04-22 13:01 | -7.59804 | 116.56257 | 30832 ft | 430 kts | 43° |
| 2026-04-22 13:02 | -7.57579 | 116.58290 | 31030 ft | 432 kts | 43° |
| 2026-04-22 13:02 | -7.55349 | 116.60326 | 31233 ft | 433 kts | 43° |
| 2026-04-22 13:02 | -7.53126 | 116.62367 | 31424 ft | 435 kts | 44° |
| 2026-04-22 13:02 | -7.50957 | 116.64527 | 31614 ft | 436 kts | 47° |
| 2026-04-22 13:03 | -7.48922 | 116.66787 | 31796 ft | 437 kts | 50° |
| 2026-04-22 13:03 | -7.46934 | 116.69145 | 31992 ft | 439 kts | 51° |
| 2026-04-22 13:03 | -7.44978 | 116.71481 | 32159 ft | 440 kts | 51° |
| 2026-04-22 13:03 | -7.42976 | 116.73873 | 32334 ft | 442 kts | 51° |
| 2026-04-22 13:04 | -7.40975 | 116.76263 | 32500 ft | 444 kts | 51° |
| 2026-04-22 13:04 | -7.38981 | 116.78644 | 32685 ft | 445 kts | 51° |
| 2026-04-22 13:04 | -7.37531 | 116.80374 | 32826 ft | 446 kts | 51° |
| 2026-04-22 13:04 | -7.35909 | 116.82311 | 33014 ft | 447 kts | 51° |
| 2026-04-22 13:05 | -7.33881 | 116.84731 | 33265 ft | 447 kts | 51° |
| 2026-04-22 13:05 | -7.31854 | 116.87148 | 33493 ft | 447 kts | 51° |
| 2026-04-22 13:05 | -7.29845 | 116.89544 | 33698 ft | 448 kts | 51° |
| 2026-04-22 13:05 | -7.27810 | 116.91970 | 33897 ft | 449 kts | 51° |
| 2026-04-22 13:06 | -7.25784 | 116.94385 | 34107 ft | 450 kts | 51° |
| 2026-04-22 13:06 | -7.23759 | 116.96799 | 34305 ft | 450 kts | 51° |
| 2026-04-22 13:06 | -7.21713 | 116.99235 | 34487 ft | 451 kts | 51° |
| 2026-04-22 13:06 | -7.19689 | 117.01645 | 34667 ft | 452 kts | 51° |
| 2026-04-22 13:07 | -7.17658 | 117.04063 | 34839 ft | 452 kts | 51° |
| 2026-04-22 13:07 | -7.13588 | 117.08909 | 34869 ft | 454 kts | 51° |
| 2026-04-22 13:08 | -7.09498 | 117.13776 | 34871 ft | 454 kts | 51° |
| 2026-04-22 13:08 | -7.05402 | 117.18649 | 34872 ft | 454 kts | 51° |
| 2026-04-22 13:09 | -7.01293 | 117.23539 | 34872 ft | 453 kts | 51° |
| 2026-04-22 13:09 | -6.97208 | 117.28397 | 34872 ft | 453 kts | 51° |
| 2026-04-22 13:10 | -6.93149 | 117.33223 | 34872 ft | 453 kts | 51° |
| 2026-04-22 13:10 | -6.89065 | 117.38075 | 34872 ft | 453 kts | 51° |
| 2026-04-22 13:11 | -6.84984 | 117.42925 | 34872 ft | 453 kts | 51° |
| 2026-04-22 13:11 | -6.81304 | 117.47301 | 34872 ft | 453 kts | 51° |
| 2026-04-22 13:12 | -6.77207 | 117.52165 | 34872 ft | 453 kts | 51° |
| 2026-04-22 13:12 | -6.73112 | 117.57030 | 34872 ft | 453 kts | 51° |
| 2026-04-22 13:13 | -6.69014 | 117.61835 | 34871 ft | 453 kts | 49° |
| 2026-04-22 13:13 | -6.64514 | 117.66306 | 34873 ft | 454 kts | 44° |
| 2026-04-22 13:14 | -6.59814 | 117.70648 | 34872 ft | 454 kts | 44° |
| 2026-04-22 13:14 | -6.55176 | 117.74931 | 34872 ft | 454 kts | 44° |
| 2026-04-22 13:15 | -6.50491 | 117.79260 | 34872 ft | 454 kts | 44° |
| 2026-04-22 13:15 | -6.45840 | 117.83558 | 34872 ft | 453 kts | 44° |
| 2026-04-22 13:16 | -6.41162 | 117.87880 | 34879 ft | 453 kts | 44° |
| 2026-04-22 13:16 | -6.36498 | 117.92188 | 34880 ft | 453 kts | 44° |
| 2026-04-22 13:17 | -6.31829 | 117.96500 | 34873 ft | 453 kts | 44° |
| 2026-04-22 13:17 | -6.27188 | 118.00786 | 34524 ft | 454 kts | 44° |
| 2026-04-22 13:17 | -6.24853 | 118.02942 | 33880 ft | 450 kts | 44° |
| 2026-04-22 13:18 | -6.22548 | 118.05070 | 33247 ft | 447 kts | 43° |
| 2026-04-22 13:18 | -6.20255 | 118.07185 | 32580 ft | 444 kts | 43° |
| 2026-04-22 13:18 | -6.17992 | 118.09274 | 32138 ft | 439 kts | 43° |
| 2026-04-22 13:18 | -6.15741 | 118.11350 | 31773 ft | 437 kts | 44° |
| 2026-04-22 13:19 | -6.13495 | 118.13422 | 31387 ft | 434 kts | 44° |
| 2026-04-22 13:19 | -6.11283 | 118.15462 | 30952 ft | 431 kts | 44° |
| 2026-04-22 13:19 | -6.09078 | 118.17497 | 30483 ft | 427 kts | 44° |
| 2026-04-22 13:19 | -6.06875 | 118.19529 | 30042 ft | 423 kts | 44° |
| 2026-04-22 13:20 | -6.04726 | 118.21510 | 29627 ft | 418 kts | 44° |
| 2026-04-22 13:20 | -6.02604 | 118.23467 | 29206 ft | 413 kts | 44° |
| 2026-04-22 13:20 | -6.00474 | 118.25430 | 28766 ft | 409 kts | 44° |
| 2026-04-22 13:20 | -5.98388 | 118.27354 | 28341 ft | 405 kts | 44° |
| 2026-04-22 13:21 | -5.96305 | 118.29276 | 27927 ft | 401 kts | 44° |
| 2026-04-22 13:21 | -5.94273 | 118.31150 | 27507 ft | 398 kts | 44° |
| 2026-04-22 13:21 | -5.92217 | 118.33045 | 27070 ft | 394 kts | 44° |
| 2026-04-22 13:21 | -5.90187 | 118.34916 | 26658 ft | 390 kts | 44° |
| 2026-04-22 13:22 | -5.88192 | 118.36755 | 26240 ft | 387 kts | 44° |
| 2026-04-22 13:22 | -5.86221 | 118.38573 | 25803 ft | 384 kts | 44° |
| 2026-04-22 13:22 | -5.84258 | 118.40382 | 25355 ft | 381 kts | 44° |
| 2026-04-22 13:22 | -5.82317 | 118.42170 | 24931 ft | 377 kts | 44° |
| 2026-04-22 13:23 | -5.80370 | 118.43963 | 24516 ft | 373 kts | 44° |
| 2026-04-22 13:23 | -5.78438 | 118.45744 | 24101 ft | 369 kts | 44° |
| 2026-04-22 13:23 | -5.76548 | 118.47488 | 23671 ft | 366 kts | 44° |
| 2026-04-22 13:23 | -5.74665 | 118.49228 | 23259 ft | 363 kts | 44° |
| 2026-04-22 13:24 | -5.72807 | 118.50944 | 22837 ft | 360 kts | 44° |
| 2026-04-22 13:24 | -5.70946 | 118.52663 | 22409 ft | 358 kts | 44° |
| 2026-04-22 13:24 | -5.69113 | 118.54357 | 22010 ft | 355 kts | 44° |
| 2026-04-22 13:24 | -5.67291 | 118.56040 | 21599 ft | 353 kts | 44° |
| 2026-04-22 13:25 | -5.65490 | 118.57703 | 21201 ft | 351 kts | 44° |
| 2026-04-22 13:25 | -5.63678 | 118.59377 | 20773 ft | 349 kts | 43° |
| 2026-04-22 13:25 | -5.61899 | 118.61021 | 20374 ft | 347 kts | 43° |
| 2026-04-22 13:25 | -5.60138 | 118.62646 | 20093 ft | 339 kts | 43° |
| 2026-04-22 13:26 | -5.58410 | 118.64242 | 19758 ft | 334 kts | 43° |
| 2026-04-22 13:26 | -5.56690 | 118.65830 | 19425 ft | 329 kts | 43° |
| 2026-04-22 13:26 | -5.55029 | 118.67364 | 19111 ft | 324 kts | 43° |
| 2026-04-22 13:26 | -5.53383 | 118.68883 | 18782 ft | 320 kts | 43° |
| 2026-04-22 13:27 | -5.51738 | 118.70402 | 18413 ft | 317 kts | 43° |
| 2026-04-22 13:27 | -5.50115 | 118.71899 | 18032 ft | 315 kts | 43° |
| 2026-04-22 13:27 | -5.48496 | 118.73393 | 17652 ft | 313 kts | 43° |
| 2026-04-22 13:27 | -5.46900 | 118.74867 | 17295 ft | 310 kts | 43° |
| 2026-04-22 13:28 | -5.45304 | 118.76340 | 16924 ft | 308 kts | 43° |
| 2026-04-22 13:28 | -5.43741 | 118.77782 | 16558 ft | 306 kts | 43° |
| 2026-04-22 13:28 | -5.42162 | 118.79239 | 16263 ft | 301 kts | 43° |
| 2026-04-22 13:28 | -5.40630 | 118.80652 | 15977 ft | 297 kts | 43° |
| 2026-04-22 13:29 | -5.39124 | 118.82042 | 15692 ft | 293 kts | 43° |
| 2026-04-22 13:29 | -5.37618 | 118.83432 | 15379 ft | 290 kts | 43° |
| 2026-04-22 13:29 | -5.36138 | 118.84798 | 15029 ft | 288 kts | 43° |
| 2026-04-22 13:29 | -5.34655 | 118.86166 | 14667 ft | 287 kts | 43° |
| 2026-04-22 13:30 | -5.33193 | 118.87514 | 14324 ft | 286 kts | 43° |
| 2026-04-22 13:30 | -5.31736 | 118.88857 | 13984 ft | 284 kts | 43° |
| 2026-04-22 13:30 | -5.30329 | 118.90282 | 13608 ft | 283 kts | 56° |
| 2026-04-22 13:30 | -5.29559 | 118.92068 | 13221 ft | 284 kts | 79° |
| 2026-04-22 13:31 | -5.29461 | 118.94044 | 12940 ft | 280 kts | 88° |
| 2026-04-22 13:31 | -5.29470 | 118.95978 | 12673 ft | 276 kts | 89° |
| 2026-04-22 13:31 | -5.29474 | 118.97880 | 12409 ft | 272 kts | 88° |
| 2026-04-22 13:31 | -5.29474 | 118.99772 | 12141 ft | 267 kts | 88° |
| 2026-04-22 13:32 | -5.29471 | 119.01633 | 11877 ft | 263 kts | 88° |
| 2026-04-22 13:32 | -5.29467 | 119.03458 | 11618 ft | 259 kts | 88° |
| 2026-04-22 13:32 | -5.29463 | 119.05252 | 11363 ft | 255 kts | 88° |
| 2026-04-22 13:32 | -5.29456 | 119.07027 | 11068 ft | 253 kts | 88° |
| 2026-04-22 13:33 | -5.29449 | 119.08791 | 10738 ft | 253 kts | 88° |
| 2026-04-22 13:33 | -5.29442 | 119.10550 | 10413 ft | 252 kts | 88° |
| 2026-04-22 13:33 | -5.29435 | 119.12294 | 10091 ft | 251 kts | 88° |
| 2026-04-22 13:33 | -5.29428 | 119.14048 | 9765 ft | 250 kts | 88° |
| 2026-04-22 13:34 | -5.29421 | 119.15799 | 9455 ft | 249 kts | 88° |
| 2026-04-22 13:34 | -5.29414 | 119.17527 | 9139 ft | 248 kts | 88° |
| 2026-04-22 13:34 | -5.29406 | 119.19237 | 8830 ft | 247 kts | 88° |
| 2026-04-22 13:34 | -5.29400 | 119.20979 | 8518 ft | 246 kts | 88° |
| 2026-04-22 13:35 | -5.29393 | 119.22694 | 8202 ft | 246 kts | 88° |
| 2026-04-22 13:35 | -5.29386 | 119.24397 | 7888 ft | 245 kts | 88° |
| 2026-04-22 13:35 | -5.29379 | 119.26097 | 7582 ft | 244 kts | 88° |
| 2026-04-22 13:35 | -5.29372 | 119.27801 | 7278 ft | 243 kts | 88° |
| 2026-04-22 13:36 | -5.29364 | 119.29514 | 6967 ft | 243 kts | 88° |
| 2026-04-22 13:36 | -5.29357 | 119.31214 | 6664 ft | 242 kts | 88° |
| 2026-04-22 13:36 | -5.29350 | 119.32896 | 6362 ft | 241 kts | 88° |
| 2026-04-22 13:36 | -5.29342 | 119.34597 | 6092 ft | 239 kts | 88° |
| 2026-04-22 13:37 | -5.29336 | 119.36253 | 5850 ft | 236 kts | 88° |
| 2026-04-22 13:37 | -5.29329 | 119.37897 | 5571 ft | 234 kts | 88° |
| 2026-04-22 13:37 | -5.29322 | 119.39538 | 5286 ft | 233 kts | 88° |
| 2026-04-22 13:37 | -5.29314 | 119.41157 | 4997 ft | 233 kts | 88° |
| 2026-04-22 13:38 | -5.29063 | 119.42743 | 4670 ft | 231 kts | 61° |
| 2026-04-22 13:38 | -5.26556 | 119.44579 | 4150 ft | 222 kts | 27° |
| 2026-04-22 13:38 | -5.25200 | 119.45283 | 3977 ft | 209 kts | 28° |
| 2026-04-22 13:39 | -5.23956 | 119.45944 | 3817 ft | 194 kts | 29° |
| 2026-04-22 13:39 | -5.22785 | 119.46588 | 3501 ft | 188 kts | 30° |
| 2026-04-22 13:39 | -5.21668 | 119.47221 | 3193 ft | 181 kts | 31° |
| 2026-04-22 13:39 | -5.20594 | 119.47839 | 2878 ft | 176 kts | 31° |
| 2026-04-22 13:40 | -5.19533 | 119.48453 | 2536 ft | 173 kts | 31° |
| 2026-04-22 13:40 | -5.18511 | 119.49045 | 2228 ft | 166 kts | 31° |
| 2026-04-22 13:40 | -5.17517 | 119.49619 | 1869 ft | 161 kts | 31° |
| 2026-04-22 13:40 | -5.16585 | 119.50158 | 1639 ft | 147 kts | 31° |
| 2026-04-22 13:41 | -5.15714 | 119.50661 | 1444 ft | 141 kts | 31° |
| 2026-04-22 13:41 | -5.14855 | 119.51157 | 1277 ft | 141 kts | 31° |
| 2026-04-22 13:41 | -5.13990 | 119.51656 | 1104 ft | 141 kts | 31° |
| 2026-04-22 13:41 | -5.13140 | 119.52147 | 928 ft | 141 kts | 31° |
| 2026-04-22 13:42 | -5.12286 | 119.52639 | 745 ft | 140 kts | 31° |
| 2026-04-22 13:42 | -5.11444 | 119.53128 | 574 ft | 140 kts | 31° |
| 2026-04-22 13:42 | -5.10590 | 119.53620 | 394 ft | 140 kts | 31° |
| 2026-04-22 13:42 | -5.09745 | 119.54102 | 201 ft | 139 kts | 31° |
| 2026-04-22 13:43 | -5.08903 | 119.54587 | 62 ft | 132 kts | 31° |
| 2026-04-22 13:43 | -5.08213 | 119.54991 | 60 ft | 90 kts | 31° |
| 2026-04-22 13:43 | -5.07822 | 119.55215 | 61 ft | 28 kts | 29° |
| 2026-04-22 13:43 | -5.07718 | 119.55244 | 61 ft | 13 kts | 333° |
| 2026-04-22 13:44 | -5.07686 | 119.55203 | 61 ft | 5 kts | 305° |
| 2026-04-22 13:44 | -5.07666 | 119.55170 | 61 ft | 2 kts | 298° |
| 2026-04-22 13:44 | -5.07656 | 119.55152 | 60 ft | 3 kts | 298° |
| 2026-04-22 13:44 | -5.07642 | 119.55125 | 60 ft | 5 kts | 298° |
| 2026-04-22 13:45 | -5.07622 | 119.55090 | 60 ft | 6 kts | 299° |
| 2026-04-22 13:45 | -5.07598 | 119.55047 | 60 ft | 7 kts | 299° |
| 2026-04-22 13:45 | -5.07581 | 119.54993 | 60 ft | 8 kts | 261° |
| 2026-04-22 13:45 | -5.07594 | 119.54929 | 60 ft | 9 kts | 246° |
| 2026-04-22 13:46 | -5.07648 | 119.54883 | 60 ft | 11 kts | 210° |
| 2026-04-22 13:46 | -5.07718 | 119.54844 | 60 ft | 7 kts | 209° |
| 2026-04-22 13:46 | -5.07764 | 119.54818 | 60 ft | 7 kts | 208° |
| 2026-04-22 13:46 | -5.07780 | 119.54800 | 60 ft | 0 kts | 255° |
| 2026-04-22 13:47 | -5.07778 | 119.54791 | 60 ft | 2 kts | 285° |
| 2026-04-22 13:47 | -5.07770 | 119.54773 | 60 ft | 3 kts | 299° |
| 2026-04-22 13:47 | -5.07760 | 119.54756 | 60 ft | 2 kts | 301° |
| 2026-04-22 13:47 | -5.07752 | 119.54743 | 60 ft | 1 kts | 300° |
| 2026-04-22 13:48 | -5.07752 | 119.54742 | 60 ft | 0 kts | 300° |